Time;durP1;ratioP1;P1;durP2;ratioP2;P2;SDS_P1;SDS_P2;PMS_P1;PMS_P2;Temp;Humidity;BMP_temperature;BMP_pressure;BME280_temperature;BME280_humidity;BME280_pressure;Samples;Min_cycle;Max_cycle;Signal;HPM_P1;HPM_P2
2022/05/30 00:00:31;;;;;;;2.87;2.17;;;4.20;97.90;;;;;;4197358;28;20180;-69
2022/05/30 00:02:32;;;;;;;1.90;1.70;;;4.20;98.10;;;;;;4197109;28;20211;-69
2022/05/30 00:04:35;;;;;;;2.20;2.00;;;4.10;98.30;;;;;;4197319;28;20190;-69
2022/05/30 00:06:36;;;;;;;3.63;2.03;;;4.00;98.60;;;;;;4196395;28;20418;-69
2022/05/30 00:08:37;;;;;;;2.03;1.77;;;4.00;98.80;;;;;;4197172;28;20412;-69
2022/05/30 00:10:38;;;;;;;2.53;2.00;;;3.90;99.10;;;;;;4197290;28;20203;-69
2022/05/30 00:12:39;;;;;;;2.30;1.70;;;3.80;98.90;;;;;;4197114;28;20522;-69
2022/05/30 00:14:39;;;;;;;2.53;2.10;;;3.80;99.10;;;;;;4196788;28;20196;-69
2022/05/30 00:16:40;;;;;;;3.40;1.90;;;3.80;99.20;;;;;;4196163;28;20449;-69
2022/05/30 00:18:41;;;;;;;2.40;1.97;;;3.80;99.20;;;;;;4196929;28;20298;-69
2022/05/30 00:20:46;;;;;;;2.97;1.87;;;3.80;99.10;;;;;;4196939;28;20223;-69
2022/05/30 00:22:47;;;;;;;3.37;1.80;;;3.80;99.40;;;;;;4196840;28;20235;-69
2022/05/30 00:24:49;;;;;;;2.67;2.20;;;3.70;99.40;;;;;;4197007;28;20412;-69
2022/05/30 00:26:49;;;;;;;2.57;1.93;;;3.60;99.10;;;;;;4196251;28;20442;-69
2022/05/30 00:28:50;;;;;;;2.53;2.10;;;3.50;99.60;;;;;;4196765;28;20421;-69
2022/05/30 00:30:51;;;;;;;3.20;1.77;;;3.50;99.90;;;;;;4196669;28;20172;-69
2022/05/30 00:32:52;;;;;;;2.77;1.80;;;3.50;99.90;;;;;;4196612;28;20865;-69
2022/05/30 00:34:52;;;;;;;2.33;2.10;;;3.40;99.90;;;;;;4196271;28;20263;-69
2022/05/30 00:36:53;;;;;;;5.53;2.30;;;3.40;99.90;;;;;;4196086;28;20270;-69
2022/05/30 00:38:55;;;;;;;1.70;1.60;;;3.40;99.90;;;;;;4196471;28;20184;-69
2022/05/30 00:40:57;;;;;;;3.07;1.87;;;3.30;99.70;;;;;;4196679;28;20998;-69
2022/05/30 00:43:29;;;;;;;2.40;2.13;;;3.30;99.90;;;;;;4196644;28;20472;-69
2022/05/30 00:45:29;;;;;;;4.00;1.90;;;3.30;99.90;;;;;;4196091;28;20399;-70
2022/05/30 00:47:30;;;;;;;2.43;2.23;;;3.30;99.90;;;;;;4196520;28;20517;-69
2022/05/30 00:49:31;;;;;;;2.20;2.00;;;3.30;99.90;;;;;;4196390;28;20180;-69
2022/05/30 00:51:40;;;;;;;4.80;2.03;;;3.20;99.90;;;;;;4196801;28;20266;-69
2022/05/30 00:53:42;;;;;;;3.27;2.20;;;3.20;99.90;;;;;;4196433;28;20531;-69
2022/05/30 00:55:43;;;;;;;2.70;2.23;;;3.20;99.90;;;;;;4195946;28;20422;-69
2022/05/30 00:57:46;;;;;;;2.37;2.00;;;3.10;99.90;;;;;;4196509;28;20429;-69
2022/05/30 00:59:55;;;;;;;2.70;2.10;;;3.00;99.90;;;;;;4196325;28;20172;-69
2022/05/30 01:01:56;;;;;;;3.07;2.30;;;3.00;99.90;;;;;;4196096;28;20415;-69
2022/05/30 01:06:30;;;;;;;2.20;2.00;;;3.00;99.90;;;;;;4196009;28;20166;-69
2022/05/30 01:08:32;;;;;;;4.03;2.60;;;3.00;99.90;;;;;;4196344;28;20398;-69
2022/05/30 01:10:33;;;;;;;2.07;1.87;;;3.00;99.90;;;;;;4196050;28;20783;-69
2022/05/30 01:12:43;;;;;;;2.60;2.40;;;3.00;99.90;;;;;;4196230;28;20445;-69
2022/05/30 01:14:44;;;;;;;2.93;2.10;;;2.90;99.90;;;;;;4196144;28;20402;-69
2022/05/30 01:16:45;;;;;;;5.20;2.30;;;2.90;99.90;;;;;;4195247;28;20436;-69
2022/05/30 01:18:54;;;;;;;2.77;2.33;;;2.90;99.90;;;;;;4195919;28;20177;-69
2022/05/30 01:21:34;;;;;;;4.00;2.47;;;2.90;99.90;;;;;;4195647;28;20443;-69
2022/05/30 01:24:14;;;;;;;2.60;2.10;;;2.90;99.90;;;;;;4195590;28;20976;-69
2022/05/30 01:26:55;;;;;;;3.27;2.10;;;2.90;99.90;;;;;;4195143;28;20420;-69
2022/05/30 01:29:14;;;;;;;2.40;2.20;;;2.80;99.90;;;;;;4128087;28;20433;-69
2022/05/30 01:31:16;;;;;;;2.97;2.30;;;2.80;99.90;;;;;;4128154;28;20421;-69
2022/05/30 01:33:17;;;;;;;2.97;2.10;;;2.70;99.90;;;;;;4133860;28;20835;-69
2022/05/30 01:35:23;;;;;;;2.73;2.30;;;2.70;99.90;;;;;;4195398;28;20426;-69
2022/05/30 01:37:24;;;;;;;3.27;2.20;;;2.70;99.90;;;;;;4195459;28;20516;-69
2022/05/30 01:39:24;;;;;;;2.20;2.00;;;2.70;99.90;;;;;;4195681;28;20426;-70
2022/05/30 01:41:25;;;;;;;4.90;2.47;;;2.50;99.90;;;;;;4195749;28;20194;-69
2022/05/30 01:43:26;;;;;;;3.67;2.23;;;2.50;99.90;;;;;;4195572;28;20207;-69
2022/05/30 01:45:27;;;;;;;4.50;2.40;;;2.50;99.90;;;;;;4195073;28;20183;-69
2022/05/30 01:47:28;;;;;;;3.10;2.83;;;2.40;99.90;;;;;;4195516;28;20444;-69
2022/05/30 01:49:28;;;;;;;4.30;2.70;;;2.50;99.90;;;;;;4195455;28;20475;-69
2022/05/30 01:51:29;;;;;;;2.40;2.20;;;2.50;99.90;;;;;;4195431;28;20237;-69
2022/05/30 01:53:30;;;;;;;2.17;1.90;;;2.50;99.90;;;;;;4195220;28;20213;-69
2022/05/30 01:55:30;;;;;;;4.57;2.23;;;2.40;99.90;;;;;;4194855;28;20183;-69
2022/05/30 01:57:31;;;;;;;3.33;2.00;;;2.40;99.90;;;;;;4195604;28;20263;-69
2022/05/30 01:59:31;;;;;;;5.87;2.70;;;2.30;99.90;;;;;;4195242;28;20207;-69
2022/05/30 02:01:32;;;;;;;3.13;1.87;;;2.30;99.90;;;;;;4195763;28;20240;-69
2022/05/30 02:03:33;;;;;;;5.53;3.37;;;2.30;99.90;;;;;;4195083;28;20256;-69
2022/05/30 02:05:34;;;;;;;4.03;2.10;;;2.30;99.90;;;;;;4194672;28;20263;-69
2022/05/30 02:07:34;;;;;;;2.40;1.97;;;2.20;99.90;;;;;;4195595;28;20418;-69
2022/05/30 02:09:35;;;;;;;2.77;1.97;;;2.10;99.90;;;;;;4195357;28;20180;-69
2022/05/30 02:11:36;;;;;;;2.27;2.03;;;2.20;99.90;;;;;;4195469;28;20176;-69
2022/05/30 02:13:38;;;;;;;4.30;2.40;;;2.10;99.90;;;;;;4194955;28;20214;-69
2022/05/30 02:17:57;;;;;;;4.80;2.33;;;2.10;99.90;;;;;;4195887;28;20417;-69
2022/05/30 02:19:58;;;;;;;4.63;2.40;;;2.10;99.90;;;;;;4195393;28;20441;-69
2022/05/30 02:22:00;;;;;;;4.60;2.40;;;2.10;99.90;;;;;;4195395;28;20225;-69
2022/05/30 02:24:06;;;;;;;6.10;2.67;;;2.10;99.90;;;;;;4196485;28;20682;-69
2022/05/30 02:26:06;;;;;;;3.63;2.37;;;2.00;99.90;;;;;;4195516;28;20390;-69
2022/05/30 02:28:07;;;;;;;3.37;1.90;;;2.00;99.90;;;;;;4195293;28;20416;-69
2022/05/30 02:30:09;;;;;;;4.90;2.53;;;2.00;99.90;;;;;;4195369;28;20203;-69
2022/05/30 02:32:10;;;;;;;2.83;2.40;;;2.00;99.90;;;;;;4192489;28;20681;-69
2022/05/30 02:36:39;;;;;;;2.97;2.40;;;1.90;99.90;;;;;;4194433;28;20187;-69
2022/05/30 02:38:39;;;;;;;4.47;2.40;;;1.80;99.90;;;;;;4195217;28;21027;-71
2022/05/30 02:40:40;;;;;;;3.03;2.60;;;1.80;99.90;;;;;;4195246;28;20470;-69
2022/05/30 02:42:40;;;;;;;3.10;2.40;;;1.80;99.90;;;;;;4195146;28;20257;-69
2022/05/30 02:44:41;;;;;;;2.87;2.30;;;1.80;99.90;;;;;;4195328;28;20662;-69
2022/05/30 02:46:41;;;;;;;4.53;2.80;;;1.80;99.90;;;;;;4194858;28;20664;-69
2022/05/30 02:48:42;;;;;;;4.10;2.97;;;1.80;99.90;;;;;;4192290;28;20560;-69
2022/05/30 02:50:44;;;;;;;5.33;2.70;;;1.80;99.90;;;;;;4194870;28;20181;-69
2022/05/30 02:52:45;;;;;;;4.37;2.60;;;1.80;99.90;;;;;;4195034;28;20210;-69
2022/05/30 02:54:45;;;;;;;6.13;2.87;;;1.90;99.90;;;;;;4195027;28;20422;-71
2022/05/30 02:56:54;;;;;;;5.03;2.43;;;1.80;99.90;;;;;;4194321;28;20180;-69
2022/05/30 02:58:58;;;;;;;3.67;2.43;;;1.80;99.90;;;;;;4195064;28;20203;-69
2022/05/30 03:00:58;;;;;;;3.20;2.17;;;1.70;99.90;;;;;;4195189;28;20441;-69
2022/05/30 03:03:00;;;;;;;3.70;2.20;;;1.70;99.90;;;;;;4195027;28;20485;-69
2022/05/30 03:05:02;;;;;;;2.97;2.00;;;1.70;99.90;;;;;;4194693;28;20557;-69
2022/05/30 03:07:02;;;;;;;4.07;2.40;;;1.60;99.90;;;;;;4191024;28;20434;-69
2022/05/30 03:09:05;;;;;;;5.40;3.23;;;1.60;99.90;;;;;;4194724;28;20434;-69
2022/05/30 03:11:05;;;;;;;2.20;2.00;;;1.60;99.90;;;;;;4195144;28;20187;-69
2022/05/30 03:13:06;;;;;;;3.43;2.37;;;1.60;99.90;;;;;;4194855;28;20444;-69
2022/05/30 03:15:08;;;;;;;3.10;2.27;;;1.70;99.90;;;;;;4194593;28;20270;-69
2022/05/30 03:17:09;;;;;;;1.97;1.87;;;1.70;99.90;;;;;;4194213;28;20410;-69
2022/05/30 03:19:09;;;;;;;2.40;2.00;;;1.60;99.90;;;;;;4194827;28;20482;-69
2022/05/30 03:21:10;;;;;;;2.43;1.83;;;1.60;99.90;;;;;;4194753;28;20203;-69
2022/05/30 03:23:11;;;;;;;3.07;2.20;;;1.60;99.90;;;;;;4194667;28;20203;-69
2022/05/30 03:25:11;;;;;;;3.03;2.00;;;1.60;99.90;;;;;;4195469;28;20919;-69
2022/05/30 03:27:12;;;;;;;2.80;2.10;;;1.50;99.90;;;;;;4197440;28;20183;-69
2022/05/30 03:29:12;;;;;;;3.70;1.97;;;1.50;99.90;;;;;;4198096;28;20242;-69
2022/05/30 03:31:13;;;;;;;3.97;2.20;;;1.50;99.90;;;;;;4197744;28;20176;-69
2022/05/30 03:33:14;;;;;;;2.30;2.10;;;1.50;99.90;;;;;;4197729;28;20685;-69
2022/05/30 03:35:16;;;;;;;3.27;2.20;;;1.50;99.90;;;;;;4197573;28;20249;-69
2022/05/30 03:37:16;;;;;;;5.20;2.27;;;1.50;99.90;;;;;;4197297;28;20567;-69
2022/05/30 03:39:17;;;;;;;3.53;2.10;;;1.50;99.90;;;;;;4197658;28;20433;-68
2022/05/30 03:41:17;;;;;;;2.40;2.00;;;1.40;99.90;;;;;;4197530;28;20573;-69
2022/05/30 03:43:18;;;;;;;3.33;2.10;;;1.40;99.90;;;;;;4197529;28;20218;-69
2022/05/30 03:45:19;;;;;;;2.60;2.40;;;1.30;99.90;;;;;;4197446;28;20178;-69
2022/05/30 03:47:19;;;;;;;3.97;2.40;;;1.30;99.90;;;;;;4197141;28;20755;-69
2022/05/30 03:49:20;;;;;;;2.67;2.47;;;1.40;99.90;;;;;;4197623;28;20543;-69
2022/05/30 03:51:20;;;;;;;4.33;2.20;;;1.40;99.90;;;;;;4197638;28;20172;-69
2022/05/30 03:53:21;;;;;;;3.63;2.33;;;1.40;99.90;;;;;;4197679;28;20206;-69
2022/05/30 03:55:23;;;;;;;4.40;2.40;;;1.40;99.90;;;;;;4196893;28;20205;-69
2022/05/30 03:57:23;;;;;;;5.03;2.80;;;1.40;99.90;;;;;;4197336;28;20179;-69
2022/05/30 03:59:24;;;;;;;2.73;2.00;;;1.30;99.90;;;;;;4197231;28;20418;-69
2022/05/30 04:01:24;;;;;;;2.50;2.23;;;1.40;99.90;;;;;;4197444;28;20191;-69
2022/05/30 04:03:25;;;;;;;3.90;2.50;;;1.40;99.90;;;;;;4197315;28;20210;-69
2022/05/30 04:05:26;;;;;;;2.53;1.97;;;1.40;99.90;;;;;;4196488;28;20258;-69
2022/05/30 04:07:27;;;;;;;3.63;1.80;;;1.40;99.90;;;;;;4197109;28;20224;-70
2022/05/30 04:09:27;;;;;;;1.70;1.60;;;1.40;99.90;;;;;;4197132;28;20422;-69
2022/05/30 04:11:28;;;;;;;3.27;2.10;;;1.40;99.90;;;;;;4197279;28;20176;-69
2022/05/30 04:13:29;;;;;;;2.53;2.20;;;1.50;99.90;;;;;;4196986;28;20199;-69
2022/05/30 04:15:30;;;;;;;1.80;1.70;;;1.50;99.90;;;;;;4196207;28;20436;-70
2022/05/30 04:17:33;;;;;;;3.70;2.27;;;1.50;99.90;;;;;;4197015;28;20693;-69
2022/05/30 04:19:33;;;;;;;2.67;2.27;;;1.60;99.90;;;;;;4197127;28;20608;-69
2022/05/30 04:21:35;;;;;;;3.03;2.10;;;1.50;99.90;;;;;;4197274;28;20524;-69
2022/05/30 04:23:37;;;;;;;4.20;2.23;;;1.50;99.90;;;;;;4197513;28;20214;-69
2022/05/30 04:25:37;;;;;;;2.30;2.00;;;1.50;99.90;;;;;;4196851;28;20417;-69
2022/05/30 04:27:38;;;;;;;3.03;2.10;;;1.60;99.90;;;;;;4197231;28;20418;-69
2022/05/30 04:29:39;;;;;;;4.27;2.00;;;1.60;99.90;;;;;;4196366;28;20232;-69
2022/05/30 04:31:39;;;;;;;3.43;2.10;;;1.60;99.90;;;;;;4197114;28;20180;-69
2022/05/30 04:33:41;;;;;;;4.27;2.10;;;1.70;99.90;;;;;;4197157;28;20206;-69
2022/05/30 04:35:43;;;;;;;2.40;1.83;;;1.80;99.90;;;;;;4196256;28;20238;-70
2022/05/30 04:37:46;;;;;;;2.37;1.87;;;1.70;99.90;;;;;;4196233;28;20418;-69
2022/05/30 04:39:46;;;;;;;3.33;2.37;;;1.80;99.90;;;;;;4197007;28;20422;-70
2022/05/30 04:41:47;;;;;;;3.80;2.23;;;1.90;99.90;;;;;;4197016;28;21016;-69
2022/05/30 04:43:47;;;;;;;3.93;2.20;;;1.90;99.90;;;;;;4197271;28;20265;-69
2022/05/30 04:46:01;;;;;;;2.80;2.27;;;2.00;99.90;;;;;;4196678;28;20179;-69
2022/05/30 04:48:01;;;;;;;2.03;1.90;;;2.00;99.90;;;;;;4195526;28;20213;-69
2022/05/30 04:50:08;;;;;;;2.17;1.97;;;2.10;99.90;;;;;;4197449;28;20864;-69
2022/05/30 04:52:09;;;;;;;5.57;2.40;;;2.10;99.90;;;;;;4196994;28;20190;-69
2022/05/30 04:54:09;;;;;;;3.33;2.27;;;2.10;99.90;;;;;;4197240;28;20438;-69
2022/05/30 04:56:10;;;;;;;2.60;2.10;;;2.20;99.90;;;;;;4196721;28;20184;-69
2022/05/30 04:58:10;;;;;;;2.00;1.80;;;2.10;99.90;;;;;;4197180;28;20180;-69
2022/05/30 05:00:13;;;;;;;2.20;2.00;;;2.20;99.90;;;;;;4197200;28;20233;-69
2022/05/30 05:02:16;;;;;;;3.20;1.90;;;2.20;99.90;;;;;;4196741;28;20175;-70
2022/05/30 05:04:16;;;;;;;2.40;2.20;;;2.30;99.90;;;;;;4196913;28;20465;-70
2022/05/30 05:06:20;;;;;;;6.23;2.07;;;2.40;99.90;;;;;;4195400;28;20787;-69
2022/05/30 05:08:36;;;;;;;3.77;2.40;;;2.40;99.90;;;;;;4195956;28;20179;-70
2022/05/30 05:10:41;;;;;;;3.30;1.80;;;2.50;99.90;;;;;;4195983;28;20405;-70
2022/05/30 05:12:42;;;;;;;2.10;1.90;;;2.50;99.90;;;;;;4195728;28;20433;-69
2022/05/30 05:14:42;;;;;;;4.07;2.10;;;2.60;99.90;;;;;;4195825;28;20829;-69
2022/05/30 05:16:43;;;;;;;4.73;1.93;;;2.60;99.90;;;;;;4195198;28;20183;-69
2022/05/30 05:18:44;;;;;;;5.37;2.30;;;2.60;99.90;;;;;;4195903;28;20611;-69
2022/05/30 05:20:45;;;;;;;2.87;1.97;;;2.70;99.90;;;;;;4194698;28;20520;-69
2022/05/30 05:22:45;;;;;;;2.10;1.90;;;2.80;99.90;;;;;;4195235;28;20449;-69
2022/05/30 05:24:46;;;;;;;3.30;2.20;;;2.80;99.90;;;;;;4195572;28;20264;-69
2022/05/30 05:26:48;;;;;;;4.10;2.00;;;2.90;99.90;;;;;;4194894;28;20260;-69
2022/05/30 05:28:49;;;;;;;4.83;2.00;;;3.00;99.90;;;;;;4195473;28;20178;-69
2022/05/30 05:30:49;;;;;;;3.80;2.37;;;3.10;99.90;;;;;;4195435;28;20414;-69
2022/05/30 05:32:51;;;;;;;5.20;2.37;;;3.20;99.90;;;;;;4195321;28;20533;-69
2022/05/30 05:34:51;;;;;;;5.30;2.50;;;3.30;99.90;;;;;;4195206;28;20184;-68
2022/05/30 05:36:52;;;;;;;3.40;2.50;;;3.40;99.90;;;;;;4194838;28;20434;-70
2022/05/30 05:38:53;;;;;;;3.73;2.47;;;3.40;99.80;;;;;;4195381;28;20176;-70
2022/05/30 05:40:53;;;;;;;3.60;2.77;;;3.40;99.70;;;;;;4195443;28;20906;-70
2022/05/30 05:42:54;;;;;;;6.13;2.97;;;3.50;99.70;;;;;;4195288;28;20226;-70
2022/05/30 05:44:55;;;;;;;4.17;2.90;;;3.50;99.60;;;;;;4195287;28;20175;-69
2022/05/30 05:46:58;;;;;;;4.73;2.90;;;3.60;99.80;;;;;;4194694;28;20176;-69
2022/05/30 05:48:59;;;;;;;4.77;2.90;;;3.70;99.70;;;;;;4194517;28;20191;-69
2022/05/30 05:51:04;;;;;;;3.40;2.80;;;3.70;99.80;;;;;;4195149;28;20418;-70
2022/05/30 05:53:05;;;;;;;4.40;2.80;;;3.70;99.80;;;;;;4195421;28;20499;-69
2022/05/30 05:55:06;;;;;;;4.93;2.77;;;3.80;99.90;;;;;;4194979;28;20811;-70
2022/05/30 05:57:08;;;;;;;4.53;2.73;;;3.80;99.90;;;;;;4194804;28;20461;-69
2022/05/30 05:59:08;;;;;;;3.00;2.43;;;3.90;99.90;;;;;;4194977;28;20495;-69
2022/05/30 06:01:11;;;;;;;5.13;2.13;;;4.00;99.90;;;;;;4194979;28;20420;-70
2022/05/30 06:03:12;;;;;;;3.47;2.50;;;4.10;99.90;;;;;;4194915;28;20659;-69
2022/05/30 06:05:12;;;;;;;3.20;2.27;;;4.20;99.90;;;;;;4194767;28;20460;-70
2022/05/30 06:07:13;;;;;;;1.73;1.60;;;4.30;99.90;;;;;;4194740;28;20608;-69
2022/05/30 06:09:14;;;;;;;2.33;1.50;;;4.70;99.10;;;;;;4195123;28;20207;-70
2022/05/30 06:11:15;;;;;;;2.80;1.77;;;4.80;98.70;;;;;;4195086;28;20177;-70
2022/05/30 06:13:16;;;;;;;2.13;1.40;;;5.10;96.90;;;;;;4195367;28;20205;-68
2022/05/30 06:15:18;;;;;;;2.60;1.70;;;5.30;96.00;;;;;;4195127;28;20417;-69
2022/05/30 06:17:19;;;;;;;4.23;1.63;;;5.40;96.40;;;;;;4194674;28;20183;-70
2022/05/30 06:19:20;;;;;;;3.87;1.93;;;5.30;97.10;;;;;;4195072;28;20406;-70
2022/05/30 06:21:23;;;;;;;5.13;1.73;;;5.50;96.80;;;;;;4194849;28;20202;-70
2022/05/30 06:23:23;;;;;;;3.63;1.30;;;5.70;95.30;;;;;;4194976;28;20206;-70
2022/05/30 06:25:24;;;;;;;1.93;1.50;;;6.20;93.10;;;;;;4194639;28;20417;-69
2022/05/30 06:27:24;;;;;;;2.00;1.47;;;6.40;91.80;;;;;;4194479;28;20258;-70
2022/05/30 06:29:25;;;;;;;2.60;1.27;;;6.50;91.70;;;;;;4195079;28;20635;-70
2022/05/30 06:31:28;;;;;;;1.93;1.40;;;6.60;91.20;;;;;;4195226;28;20176;-70
2022/05/30 06:33:29;;;;;;;1.67;1.40;;;6.70;90.00;;;;;;4194998;28;20716;-69
2022/05/30 06:35:29;;;;;;;2.43;1.50;;;6.90;87.00;;;;;;4194237;28;20418;-70
2022/05/30 06:37:30;;;;;;;3.23;1.50;;;7.10;84.40;;;;;;4194855;28;20523;-70
2022/05/30 06:39:30;;;;;;;3.13;1.47;;;7.10;88.80;;;;;;4194794;28;20211;-69
2022/05/30 06:41:32;;;;;;;1.20;1.10;;;7.20;85.40;;;;;;4194825;28;20190;-70
2022/05/30 06:43:32;;;;;;;2.50;1.37;;;7.30;83.10;;;;;;4194456;28;20279;-69
2022/05/30 06:45:34;;;;;;;1.53;1.30;;;7.30;86.30;;;;;;4193750;28;20479;-70
2022/05/30 06:47:34;;;;;;;3.07;1.40;;;7.50;84.60;;;;;;4191793;28;20256;-70
2022/05/30 06:49:35;;;;;;;2.10;1.60;;;7.40;87.90;;;;;;4194675;28;20421;-70
2022/05/30 06:51:36;;;;;;;3.43;1.30;;;7.50;88.00;;;;;;4194640;28;20586;-69
2022/05/30 06:53:38;;;;;;;3.80;1.47;;;7.60;86.40;;;;;;4194886;28;20441;-70
2022/05/30 06:55:39;;;;;;;2.13;1.50;;;7.60;85.10;;;;;;4194039;28;20418;-70
2022/05/30 06:59:59;;;;;;;2.03;1.20;;;8.20;78.80;;;;;;4195314;28;20545;-70
2022/05/30 07:02:01;;;;;;;1.80;1.30;;;8.40;76.80;;;;;;4197782;28;20422;-70
2022/05/30 07:04:01;;;;;;;3.00;1.30;;;8.40;74.80;;;;;;4198217;28;20592;-70
2022/05/30 07:06:07;;;;;;;4.43;1.30;;;8.60;73.30;;;;;;4197118;28;20435;-70
2022/05/30 07:08:08;;;;;;;2.67;1.50;;;8.50;80.20;;;;;;4197990;28;20208;-70
2022/05/30 07:10:11;;;;;;;3.33;1.20;;;8.60;72.20;;;;;;4197871;28;20439;-70
2022/05/30 07:12:12;;;;;;;1.40;1.00;;;8.90;70.40;;;;;;4197740;28;20200;-70
2022/05/30 07:14:12;;;;;;;2.07;1.13;;;9.20;69.80;;;;;;4197838;28;20609;-70
2022/05/30 07:16:13;;;;;;;3.53;1.40;;;9.20;66.00;;;;;;4195656;28;20181;-70
2022/05/30 07:18:17;;;;;;;2.07;1.20;;;9.20;65.60;;;;;;4197856;28;20657;-70
2022/05/30 07:20:18;;;;;;;1.50;1.20;;;9.20;67.00;;;;;;4197677;28;20266;-70
2022/05/30 07:22:18;;;;;;;2.83;1.30;;;9.30;65.30;;;;;;4197643;28;20185;-68
2022/05/30 07:24:19;;;;;;;2.70;1.10;;;9.40;66.50;;;;;;4198045;28;20214;-70
2022/05/30 07:26:21;;;;;;;2.40;1.23;;;9.40;72.30;;;;;;4197158;28;20243;-69
2022/05/30 07:28:21;;;;;;;2.73;1.40;;;9.50;65.10;;;;;;4197587;28;20259;-70
2022/05/30 07:30:22;;;;;;;1.60;1.20;;;9.70;64.50;;;;;;4197590;28;20186;-70
2022/05/30 07:32:22;;;;;;;1.23;1.00;;;9.70;61.70;;;;;;4197784;28;20577;-70
2022/05/30 07:34:23;;;;;;;4.30;1.40;;;9.80;65.70;;;;;;4197744;28;20172;-69
2022/05/30 07:36:27;;;;;;;3.57;1.20;;;9.80;63.00;;;;;;4197240;28;20554;-70
2022/05/30 07:38:28;;;;;;;2.80;1.30;;;9.90;66.00;;;;;;4197607;28;20732;-70
2022/05/30 07:40:28;;;;;;;2.00;1.13;;;9.80;63.50;;;;;;4197624;28;20183;-70
2022/05/30 07:42:29;;;;;;;2.30;1.60;;;10.10;63.30;;;;;;4197478;28;20187;-70
2022/05/30 07:44:30;;;;;;;2.40;1.40;;;10.30;61.50;;;;;;4197413;28;20682;-70
2022/05/30 07:46:30;;;;;;;1.93;1.00;;;10.40;62.10;;;;;;4196762;28;20270;-70
2022/05/30 07:48:31;;;;;;;3.73;1.17;;;10.50;63.00;;;;;;4197316;28;20176;-69
2022/05/30 07:50:34;;;;;;;2.10;1.30;;;10.60;59.60;;;;;;4197044;28;20681;-70
2022/05/30 07:52:34;;;;;;;2.60;1.33;;;10.70;62.50;;;;;;4197205;28;20218;-69
2022/05/30 07:54:35;;;;;;;3.83;1.30;;;10.70;59.80;;;;;;4197370;28;20180;-69
2022/05/30 07:56:36;;;;;;;2.50;1.10;;;10.60;59.30;;;;;;4196558;28;20233;-70
2022/05/30 07:58:37;;;;;;;2.90;1.60;;;10.70;60.00;;;;;;4197076;28;20215;-70
2022/05/30 08:00:37;;;;;;;6.53;1.67;;;10.70;57.50;;;;;;4197110;28;20266;-70
2022/05/30 08:02:39;;;;;;;1.80;1.30;;;10.70;58.30;;;;;;4197084;28;20214;-70
2022/05/30 08:04:39;;;;;;;3.60;1.20;;;10.80;56.70;;;;;;4197211;28;20264;-69
2022/05/30 08:06:40;;;;;;;1.23;1.00;;;10.50;56.20;;;;;;4196363;28;20179;-70
2022/05/30 08:08:44;;;;;;;1.93;1.00;;;10.30;53.70;;;;;;4197095;28;20214;-70
2022/05/30 08:10:45;;;;;;;1.90;1.07;;;10.40;54.00;;;;;;4196995;28;20188;-70
2022/05/30 08:12:47;;;;;;;3.27;1.23;;;10.40;50.20;;;;;;4196257;28;20191;-69
2022/05/30 08:14:47;;;;;;;5.33;1.70;;;10.90;51.30;;;;;;4196926;28;20184;-69
2022/05/30 08:16:48;;;;;;;3.50;1.10;;;11.00;54.30;;;;;;4196180;28;20577;-71
2022/05/30 08:18:48;;;;;;;1.87;1.07;;;11.10;54.90;;;;;;4196512;28;20290;-70
2022/05/30 08:20:49;;;;;;;2.00;1.10;;;11.30;55.10;;;;;;4196637;28;20214;-70
2022/05/30 08:22:50;;;;;;;1.93;0.97;;;11.20;52.50;;;;;;4196482;28;20200;-70
2022/05/30 08:24:53;;;;;;;3.00;1.07;;;11.50;52.20;;;;;;4196902;28;20206;-68
2022/05/30 08:26:54;;;;;;;2.60;1.10;;;11.60;50.40;;;;;;4196144;28;20183;-69
2022/05/30 08:28:54;;;;;;;2.27;1.10;;;11.70;50.30;;;;;;4196529;28;20176;-69
2022/05/30 08:30:55;;;;;;;1.83;0.90;;;11.50;48.80;;;;;;4196702;28;20172;-69
2022/05/30 08:32:56;;;;;;;2.20;1.10;;;11.60;48.80;;;;;;4196124;28;20235;-70
2022/05/30 08:34:58;;;;;;;2.83;0.90;;;11.70;52.70;;;;;;4196425;28;20187;-70
2022/05/30 08:37:00;;;;;;;1.57;0.93;;;12.00;47.60;;;;;;4196267;28;20183;-69
2022/05/30 08:43:41;;;;;;;1.60;1.07;;;12.30;49.50;;;;;;4197077;28;20308;-69
2022/05/30 08:45:46;;;;;;;3.20;1.10;;;12.40;46.10;;;;;;4196184;28;20184;-69
2022/05/30 08:47:55;;;;;;;1.30;1.00;;;12.70;47.20;;;;;;4197047;28;20184;-69
2022/05/30 08:50:08;;;;;;;3.00;1.00;;;12.20;46.60;;;;;;4197407;28;20208;-69
2022/05/30 08:52:21;;;;;;;1.73;1.10;;;12.30;44.70;;;;;;4197453;28;20176;-69
2022/05/30 08:54:48;;;;;;;2.73;1.27;;;12.30;45.40;;;;;;4197091;28;20183;-69
2022/05/30 08:56:51;;;;;;;2.40;1.10;;;12.30;44.20;;;;;;4196124;28;20698;-70
2022/05/30 08:59:21;;;;;;;1.10;0.90;;;12.10;43.50;;;;;;4196848;28;20534;-69
2022/05/30 09:01:31;;;;;;;1.77;1.00;;;12.30;44.80;;;;;;4196756;28;20167;-69
2022/05/30 09:04:17;;;;;;;2.50;1.20;;;12.20;41.70;;;;;;4196796;28;20209;-69
2022/05/30 09:06:27;;;;;;;1.70;0.90;;;12.70;44.40;;;;;;4196105;28;20550;-69
2022/05/30 09:08:43;;;;;;;2.07;1.03;;;12.90;39.70;;;;;;4197012;28;20214;-69
2022/05/30 09:11:02;;;;;;;1.67;1.00;;;13.10;37.50;;;;;;4196656;28;20192;-69
2022/05/30 09:13:17;;;;;;;1.10;1.00;;;13.40;35.10;;;;;;4196410;28;20196;-69
2022/05/30 09:15:23;;;;;;;1.10;1.00;;;13.30;39.60;;;;;;4196685;28;20239;-69
2022/05/30 09:17:35;;;;;;;2.00;1.20;;;13.50;38.20;;;;;;4196578;28;20171;-69
2022/05/30 09:19:36;;;;;;;2.37;1.00;;;13.40;39.20;;;;;;4195252;28;20180;-69
2022/05/30 09:21:38;;;;;;;2.37;1.00;;;13.60;38.20;;;;;;4196460;28;20238;-69
2022/05/30 09:23:39;;;;;;;1.73;1.00;;;13.60;39.60;;;;;;4196013;28;20646;-69
2022/05/30 09:25:57;;;;;;;1.20;1.00;;;13.50;42.80;;;;;;4195867;28;20179;-69
2022/05/30 09:27:57;;;;;;;1.77;1.13;;;13.50;43.40;;;;;;4196447;28;20184;-69
2022/05/30 09:30:00;;;;;;;2.43;1.10;;;13.50;42.70;;;;;;4196257;28;20187;-69
2022/05/30 09:32:24;;;;;;;1.63;1.17;;;13.50;42.60;;;;;;4196653;28;20204;-69
2022/05/30 09:34:33;;;;;;;2.70;1.03;;;13.00;41.40;;;;;;4197131;28;20179;-69
2022/05/30 09:36:48;;;;;;;0.90;0.80;;;12.50;43.90;;;;;;4195859;28;20179;-68
2022/05/30 09:39:01;;;;;;;1.73;0.93;;;12.70;42.70;;;;;;4196104;28;20172;-69
2022/05/30 09:41:06;;;;;;;3.50;1.00;;;13.30;42.00;;;;;;4195450;28;20187;-69
2022/05/30 09:43:08;;;;;;;1.20;0.87;;;13.60;40.40;;;;;;4195637;28;20280;-69
2022/05/30 09:45:15;;;;;;;1.20;0.90;;;14.00;44.40;;;;;;4195232;28;20756;-69
2022/05/30 09:47:18;;;;;;;2.17;1.03;;;14.20;38.70;;;;;;4195384;28;20176;-69
2022/05/30 09:49:24;;;;;;;1.77;1.20;;;14.40;41.90;;;;;;4195619;28;20190;-69
2022/05/30 09:51:41;;;;;;;1.43;1.00;;;14.50;37.60;;;;;;4195237;28;20193;-68
2022/05/30 09:53:47;;;;;;;1.40;1.20;;;14.60;38.00;;;;;;4195439;28;20256;-69
2022/05/30 09:55:51;;;;;;;1.43;0.90;;;15.20;41.80;;;;;;4194562;28;20194;-69
2022/05/30 09:57:53;;;;;;;2.47;1.00;;;14.90;38.80;;;;;;4195197;28;20192;-69
2022/05/30 09:59:57;;;;;;;4.57;1.07;;;15.10;37.30;;;;;;4195347;28;20179;-69
2022/05/30 10:01:58;;;;;;;2.63;1.00;;;15.40;36.30;;;;;;4195075;28;20940;-69
2022/05/30 10:04:37;;;;;;;1.63;1.20;;;15.70;37.60;;;;;;4195021;28;20257;-69
2022/05/30 10:06:38;;;;;;;2.70;1.20;;;15.50;37.30;;;;;;4194498;28;20179;-68
2022/05/30 10:08:39;;;;;;;2.60;0.90;;;15.90;36.30;;;;;;4195079;28;20233;-69
2022/05/30 10:10:46;;;;;;;2.83;1.00;;;16.10;36.90;;;;;;4194966;28;20175;-68
2022/05/30 10:12:59;;;;;;;2.87;1.30;;;16.10;36.60;;;;;;4195479;28;20195;-67
2022/05/30 10:15:00;;;;;;;1.27;0.90;;;16.60;33.40;;;;;;4195219;28;20192;-68
2022/05/30 10:17:26;;;;;;;2.23;1.20;;;17.00;33.30;;;;;;4194863;28;20195;-68
2022/05/30 10:19:31;;;;;;;2.07;1.20;;;16.40;31.70;;;;;;4195306;28;20213;-67
2022/05/30 10:30:00;;;;;;;1.53;1.03;;;16.30;33.40;;;;;;4195072;28;20186;-68
2022/05/30 10:32:07;;;;;;;2.10;1.10;;;16.90;35.40;;;;;;4194481;28;20175;-68
2022/05/30 10:34:29;;;;;;;2.00;1.33;;;17.50;34.80;;;;;;4194903;28;20199;-68
2022/05/30 10:36:51;;;;;;;1.63;1.30;;;18.40;30.70;;;;;;4194295;28;20814;-69
2022/05/30 10:39:27;;;;;;;2.97;1.23;;;19.10;27.90;;;;;;4194958;28;20218;-68
2022/05/30 10:41:36;;;;;;;2.57;1.43;;;18.30;29.30;;;;;;4194336;28;20239;-69
2022/05/30 10:43:47;;;;;;;1.67;1.10;;;18.40;30.90;;;;;;4194778;28;20252;-68
2022/05/30 10:46:10;;;;;;;2.47;1.10;;;18.30;28.60;;;;;;4194111;28;20240;-68
2022/05/30 10:48:32;;;;;;;1.57;1.27;;;18.70;30.30;;;;;;4195113;28;20176;-68
2022/05/30 10:50:46;;;;;;;1.77;1.47;;;20.20;28.10;;;;;;4194919;28;20187;-69
2022/05/30 10:52:59;;;;;;;2.13;1.40;;;19.70;28.60;;;;;;4195190;28;20203;-68
2022/05/30 10:55:12;;;;;;;2.13;1.40;;;19.20;30.40;;;;;;4195054;28;20197;-68
2022/05/30 10:57:23;;;;;;;2.80;1.37;;;19.90;27.70;;;;;;4194558;28;20179;-67
2022/05/30 10:59:39;;;;;;;1.70;1.30;;;20.30;26.80;;;;;;4194888;28;20183;-68
2022/05/30 11:01:46;;;;;;;1.40;1.30;;;20.40;27.30;;;;;;4194656;28;20179;-68
2022/05/30 11:04:02;;;;;;;3.33;1.20;;;20.40;28.40;;;;;;4194710;28;20233;-68
2022/05/30 11:06:10;;;;;;;4.40;1.33;;;20.40;26.40;;;;;;4194084;28;20515;-68
2022/05/30 11:08:35;;;;;;;1.30;1.20;;;20.20;27.30;;;;;;4194697;28;20166;-68
2022/05/30 11:10:56;;;;;;;1.90;1.17;;;20.90;26.00;;;;;;4194797;28;20229;-68
2022/05/30 11:13:14;;;;;;;3.70;1.13;;;21.00;25.70;;;;;;4194490;28;20718;-67